createdAt,value
2023-01-18T00:00:00.315Z,984
2023-01-18T00:05:00.281Z,984
2023-01-18T00:10:00.244Z,984
2023-01-18T00:15:00.191Z,984
2023-01-18T00:20:00.232Z,984
2023-01-18T00:25:00.226Z,984
2023-01-18T00:30:00.258Z,984
2023-01-18T00:35:00.235Z,984
2023-01-18T00:40:00.261Z,984
2023-01-18T00:45:00.197Z,984
2023-01-18T00:50:00.649Z,984
2023-01-18T00:55:00.267Z,984
2023-01-18T01:00:00.265Z,984
2023-01-18T01:05:00.133Z,984
2023-01-18T01:10:00.250Z,984
2023-01-18T01:15:00.218Z,984
2023-01-18T01:20:00.227Z,984
2023-01-18T01:25:00.418Z,984
2023-01-18T01:30:00.264Z,984
2023-01-18T01:35:00.241Z,984
2023-01-18T01:40:00.246Z,984
2023-01-18T01:45:00.186Z,984
2023-01-18T01:50:00.249Z,984
2023-01-18T01:55:00.220Z,984
2023-01-18T02:00:00.263Z,984
2023-01-18T02:05:00.148Z,984
2023-01-18T02:10:00.240Z,984
2023-01-18T02:15:00.233Z,984
2023-01-18T02:20:00.233Z,984
2023-01-18T02:25:00.162Z,984
2023-01-18T02:30:00.264Z,985
2023-01-18T02:35:00.145Z,985
2023-01-18T02:40:00.261Z,985
2023-01-18T02:45:00.187Z,985
2023-01-18T02:50:00.262Z,985
2023-01-18T02:55:00.182Z,985
2023-01-18T03:00:00.216Z,985
2023-01-18T03:05:00.154Z,985
2023-01-18T03:10:00.206Z,985
2023-01-18T03:15:00.165Z,985
2023-01-18T03:20:00.298Z,985
2023-01-18T03:25:00.151Z,985
2023-01-18T03:30:00.286Z,985
2023-01-18T03:35:00.180Z,985
2023-01-18T03:40:00.248Z,985
2023-01-18T03:45:00.148Z,985
2023-01-18T03:50:00.248Z,985
2023-01-18T03:55:00.140Z,985
2023-01-18T04:00:00.289Z,985
2023-01-18T04:05:00.289Z,985
2023-01-18T04:10:00.313Z,985
2023-01-18T04:15:00.279Z,985
2023-01-18T04:20:00.264Z,985
2023-01-18T04:25:00.225Z,985
2023-01-18T04:30:00.272Z,985
2023-01-18T04:35:00.650Z,985
2023-01-18T04:40:00.266Z,985
2023-01-18T04:45:00.259Z,985
2023-01-18T04:50:00.296Z,985
2023-01-18T04:55:00.289Z,986
2023-01-18T05:00:00.359Z,985
2023-01-18T05:05:00.242Z,985
2023-01-18T05:10:00.217Z,986
2023-01-18T05:15:00.239Z,986
2023-01-18T05:20:00.283Z,986
2023-01-18T05:25:00.192Z,986
2023-01-18T05:30:00.268Z,986
2023-01-18T05:35:00.253Z,986
2023-01-18T05:40:00.250Z,986
2023-01-18T05:45:00.233Z,986
2023-01-18T05:50:00.264Z,986
2023-01-18T05:55:00.238Z,986
2023-01-18T06:00:00.283Z,986
2023-01-18T06:05:00.190Z,986
2023-01-18T06:10:00.262Z,986
2023-01-18T06:15:00.258Z,986
2023-01-18T06:20:00.264Z,986
2023-01-18T06:25:00.248Z,987
2023-01-18T06:30:00.293Z,987
2023-01-18T06:35:00.298Z,987
2023-01-18T06:40:02.691Z,987
2023-01-18T06:45:00.252Z,987
2023-01-18T06:50:00.267Z,987
2023-01-18T06:55:00.523Z,987
2023-01-18T07:00:00.285Z,987
2023-01-18T07:05:00.234Z,987
2023-01-18T07:10:00.278Z,987
2023-01-18T07:15:04.929Z,987
2023-01-18T07:20:00.247Z,987
2023-01-18T07:25:00.264Z,987
2023-01-18T07:30:00.260Z,987
2023-01-18T07:35:00.310Z,987
2023-01-18T07:40:00.245Z,987
2023-01-18T07:45:00.262Z,987
2023-01-18T07:50:00.288Z,987
2023-01-18T07:55:00.297Z,987
2023-01-18T08:00:00.284Z,988
2023-01-18T08:05:00.264Z,988
2023-01-18T08:10:00.927Z,988
2023-01-18T08:15:00.298Z,988
2023-01-18T08:20:00.236Z,988
2023-01-18T08:25:00.209Z,988
2023-01-18T08:30:00.330Z,988
2023-01-18T08:35:00.243Z,988
2023-01-18T08:40:00.268Z,988
2023-01-18T08:45:00.229Z,988
2023-01-18T08:50:00.274Z,988
2023-01-18T08:55:00.227Z,988
2023-01-18T09:00:00.303Z,988
2023-01-18T09:05:00.220Z,989
2023-01-18T09:10:00.314Z,989
2023-01-18T09:15:00.261Z,989
2023-01-18T09:20:00.296Z,989
2023-01-18T09:25:00.283Z,989
2023-01-18T09:30:00.326Z,989
2023-01-18T09:35:00.230Z,989
2023-01-18T09:40:00.285Z,989
2023-01-18T09:45:00.269Z,989
2023-01-18T09:50:00.289Z,989
2023-01-18T09:55:00.261Z,989
2023-01-18T10:00:00.290Z,989
2023-01-18T10:05:00.230Z,989
2023-01-18T10:10:00.245Z,989
2023-01-18T10:15:00.242Z,989
2023-01-18T10:20:00.248Z,989
2023-01-18T10:25:00.232Z,989
2023-01-18T10:30:00.296Z,989
2023-01-18T10:35:00.253Z,989
2023-01-18T10:40:00.279Z,989
2023-01-18T10:45:00.215Z,989
2023-01-18T10:50:00.246Z,989
2023-01-18T10:55:00.283Z,989
2023-01-18T11:00:00.266Z,990
2023-01-18T11:05:00.228Z,990
2023-01-18T11:10:00.584Z,990
2023-01-18T11:15:00.219Z,990
2023-01-18T11:20:00.300Z,990
2023-01-18T11:25:00.264Z,990
2023-01-18T11:30:00.333Z,990
2023-01-18T11:35:00.332Z,990
2023-01-18T11:40:00.271Z,990
2023-01-18T11:45:00.451Z,990
2023-01-18T11:50:05.588Z,990
2023-01-18T11:55:00.308Z,990
2023-01-18T12:00:00.301Z,990
2023-01-18T12:05:00.256Z,990
2023-01-18T12:10:00.235Z,990
2023-01-18T12:15:00.194Z,990
2023-01-18T12:20:00.336Z,990
2023-01-18T12:25:00.301Z,990
2023-01-18T12:30:00.722Z,990
2023-01-18T12:35:00.272Z,990
2023-01-18T12:40:00.288Z,990
2023-01-18T12:45:00.259Z,990
2023-01-18T12:50:00.259Z,990
2023-01-18T12:55:00.219Z,990
2023-01-18T13:00:00.344Z,990
2023-01-18T13:05:00.263Z,990
2023-01-18T13:10:00.334Z,990
2023-01-18T13:15:00.249Z,990
2023-01-18T13:20:00.561Z,990
2023-01-18T13:25:00.269Z,990
2023-01-18T13:30:00.270Z,990
2023-01-18T13:35:18.519Z,990
2023-01-18T13:40:00.312Z,990
2023-01-18T13:45:00.264Z,990
2023-01-18T13:50:00.261Z,990
2023-01-18T13:55:00.231Z,990
2023-01-18T14:00:00.274Z,990
2023-01-18T14:05:00.282Z,990
2023-01-18T14:10:00.286Z,990
2023-01-18T14:15:00.207Z,990
2023-01-18T14:20:00.285Z,990
2023-01-18T14:25:00.252Z,990
2023-01-18T14:30:00.270Z,990
2023-01-18T14:35:00.265Z,990
2023-01-18T14:40:00.212Z,991
2023-01-18T14:45:00.266Z,991
2023-01-18T14:50:00.280Z,991
2023-01-18T14:55:00.262Z,991
2023-01-18T15:00:00.331Z,991
2023-01-18T15:05:00.251Z,991
2023-01-18T15:10:00.269Z,991
2023-01-18T15:15:00.235Z,991
2023-01-18T15:20:00.229Z,991
2023-01-18T15:25:00.220Z,991
2023-01-18T15:30:00.293Z,991
2023-01-18T15:35:00.270Z,991
2023-01-18T15:40:00.235Z,991
2023-01-18T15:45:00.256Z,991
2023-01-18T15:50:00.288Z,991
2023-01-18T15:55:00.271Z,991
2023-01-18T16:00:00.289Z,991
2023-01-18T16:05:00.251Z,991
2023-01-18T16:10:00.236Z,991
2023-01-18T16:15:00.213Z,991
2023-01-18T16:20:00.247Z,991
2023-01-18T16:25:00.254Z,991
2023-01-18T16:30:00.258Z,991
2023-01-18T16:35:00.277Z,991
2023-01-18T16:40:00.292Z,991
2023-01-18T16:45:00.217Z,991
2023-01-18T16:50:00.296Z,991
2023-01-18T16:55:00.272Z,991
2023-01-18T17:00:00.323Z,991
2023-01-18T17:05:00.259Z,991
2023-01-18T17:10:00.247Z,991
2023-01-18T17:15:00.279Z,992
2023-01-18T17:20:00.302Z,992
2023-01-18T17:25:00.253Z,992
2023-01-18T17:30:00.287Z,992
2023-01-18T17:35:00.217Z,992
2023-01-18T17:40:15.672Z,992
2023-01-18T17:45:00.260Z,992
2023-01-18T17:50:00.238Z,992
2023-01-18T17:55:00.205Z,992
2023-01-18T18:00:00.431Z,992
2023-01-18T18:05:00.259Z,992
2023-01-18T18:10:00.298Z,992
2023-01-18T18:15:00.265Z,992
2023-01-18T18:20:00.323Z,992
2023-01-18T18:25:00.243Z,992
2023-01-18T18:30:00.358Z,992
2023-01-18T18:35:00.253Z,992
2023-01-18T18:40:00.217Z,993
2023-01-18T18:45:00.249Z,993
2023-01-18T18:50:00.371Z,992
2023-01-18T18:55:00.254Z,993
2023-01-18T19:00:00.327Z,993
2023-01-18T19:05:00.217Z,993
2023-01-18T19:10:00.263Z,993
2023-01-18T19:15:00.313Z,993
2023-01-18T19:20:00.308Z,993
2023-01-18T19:25:01.346Z,993
2023-01-18T19:30:00.263Z,993
2023-01-18T19:35:00.225Z,993
2023-01-18T19:40:00.269Z,993
2023-01-18T19:45:01.161Z,993
2023-01-18T19:50:00.243Z,993
2023-01-18T19:55:00.268Z,993
2023-01-18T20:00:00.294Z,993
2023-01-18T20:05:00.248Z,993
2023-01-18T20:10:00.260Z,993
2023-01-18T20:15:00.211Z,993
2023-01-18T20:20:00.250Z,993
2023-01-18T20:25:00.256Z,993
2023-01-18T20:30:00.271Z,993
2023-01-18T20:35:00.259Z,993
2023-01-18T20:40:00.284Z,993
2023-01-18T20:45:00.466Z,993
2023-01-18T20:50:00.251Z,993
2023-01-18T20:55:00.244Z,993
2023-01-18T21:00:00.271Z,993
2023-01-18T21:05:00.217Z,993
2023-01-18T21:10:00.254Z,993
2023-01-18T21:15:00.358Z,993
2023-01-18T21:20:00.228Z,994
2023-01-18T21:25:00.253Z,994
2023-01-18T21:30:00.290Z,994
2023-01-18T21:35:00.234Z,994
2023-01-18T21:40:00.284Z,994
2023-01-18T21:45:00.466Z,994
2023-01-18T21:50:20.025Z,994
2023-01-18T21:55:00.214Z,994
2023-01-18T22:00:00.245Z,994
2023-01-18T22:05:00.245Z,994
2023-01-18T22:10:05.737Z,994
2023-01-18T22:15:00.153Z,994
2023-01-18T22:20:00.417Z,994
2023-01-18T22:25:00.399Z,994
2023-01-18T22:30:00.254Z,994
2023-01-18T22:35:00.267Z,994
2023-01-18T22:40:00.192Z,994
2023-01-18T22:45:00.184Z,994
2023-01-18T22:50:00.276Z,994
2023-01-18T22:55:00.203Z,994
2023-01-18T23:00:00.233Z,994
2023-01-18T23:05:00.163Z,994
2023-01-18T23:10:00.237Z,994
2023-01-18T23:15:00.151Z,994
2023-01-18T23:20:00.259Z,994
2023-01-18T23:25:00.159Z,994
2023-01-18T23:30:00.357Z,994
2023-01-18T23:35:00.266Z,994
2023-01-18T23:40:00.318Z,994
2023-01-18T23:45:00.145Z,994
2023-01-18T23:50:00.299Z,994
2023-01-18T23:55:00.209Z,994
